sensor_id;sensor_type;location;lat;lon;timestamp;P1;durP1;ratioP1;P2;durP2;ratioP2
41309;SDS011;27057;51.438;-0.010;2022-12-01T00:01:23;91.03;;;33.92;;
41309;SDS011;27057;51.438;-0.010;2022-12-01T00:03:50;79.65;;;35.13;;
41309;SDS011;27057;51.438;-0.010;2022-12-01T00:06:18;85.03;;;34.03;;
41309;SDS011;27057;51.438;-0.010;2022-12-01T00:08:48;81.13;;;32.00;;
41309;SDS011;27057;51.438;-0.010;2022-12-01T00:11:46;72.75;;;31.48;;
41309;SDS011;27057;51.438;-0.010;2022-12-01T00:14:14;72.20;;;29.45;;
41309;SDS011;27057;51.438;-0.010;2022-12-01T00:16:42;70.38;;;28.60;;
41309;SDS011;27057;51.438;-0.010;2022-12-01T00:19:10;75.30;;;30.20;;
41309;SDS011;27057;51.438;-0.010;2022-12-01T00:21:37;65.13;;;28.10;;
41309;SDS011;27057;51.438;-0.010;2022-12-01T00:24:05;70.50;;;29.20;;
41309;SDS011;27057;51.438;-0.010;2022-12-01T00:26:33;68.55;;;28.20;;
41309;SDS011;27057;51.438;-0.010;2022-12-01T00:29:00;65.68;;;26.17;;
41309;SDS011;27057;51.438;-0.010;2022-12-01T00:31:27;57.90;;;23.60;;
41309;SDS011;27057;51.438;-0.010;2022-12-01T00:33:55;57.50;;;23.83;;
41309;SDS011;27057;51.438;-0.010;2022-12-01T00:36:22;65.93;;;23.88;;
41309;SDS011;27057;51.438;-0.010;2022-12-01T00:38:51;62.08;;;22.48;;
41309;SDS011;27057;51.438;-0.010;2022-12-01T00:41:19;58.38;;;24.63;;
41309;SDS011;27057;51.438;-0.010;2022-12-01T00:43:48;58.08;;;23.02;;
41309;SDS011;27057;51.438;-0.010;2022-12-01T00:46:16;63.15;;;22.30;;
41309;SDS011;27057;51.438;-0.010;2022-12-01T00:48:44;59.20;;;21.92;;
41309;SDS011;27057;51.438;-0.010;2022-12-01T00:51:11;54.88;;;20.80;;
41309;SDS011;27057;51.438;-0.010;2022-12-01T00:53:39;50.95;;;18.88;;
41309;SDS011;27057;51.438;-0.010;2022-12-01T00:56:06;53.47;;;19.27;;
41309;SDS011;27057;51.438;-0.010;2022-12-01T00:58:34;49.60;;;19.00;;
41309;SDS011;27057;51.438;-0.010;2022-12-01T01:01:01;48.75;;;19.35;;
41309;SDS011;27057;51.438;-0.010;2022-12-01T01:03:30;65.60;;;25.80;;
41309;SDS011;27057;51.438;-0.010;2022-12-01T01:06:04;58.63;;;24.50;;
41309;SDS011;27057;51.438;-0.010;2022-12-01T01:08:33;51.33;;;23.55;;
41309;SDS011;27057;51.438;-0.010;2022-12-01T01:11:00;53.13;;;23.30;;
41309;SDS011;27057;51.438;-0.010;2022-12-01T01:13:28;56.13;;;24.58;;
41309;SDS011;27057;51.438;-0.010;2022-12-01T01:15:59;61.72;;;25.08;;
41309;SDS011;27057;51.438;-0.010;2022-12-01T01:18:31;56.28;;;22.88;;
41309;SDS011;27057;51.438;-0.010;2022-12-01T01:21:00;63.08;;;25.15;;
41309;SDS011;27057;51.438;-0.010;2022-12-01T01:23:29;58.88;;;26.35;;
41309;SDS011;27057;51.438;-0.010;2022-12-01T01:26:01;58.88;;;24.38;;
41309;SDS011;27057;51.438;-0.010;2022-12-01T01:28:30;62.50;;;25.15;;
41309;SDS011;27057;51.438;-0.010;2022-12-01T01:30:58;74.00;;;27.05;;
41309;SDS011;27057;51.438;-0.010;2022-12-01T01:33:26;58.33;;;25.75;;
41309;SDS011;27057;51.438;-0.010;2022-12-01T01:35:53;64.88;;;26.88;;
41309;SDS011;27057;51.438;-0.010;2022-12-01T01:38:26;68.45;;;27.20;;
41309;SDS011;27057;51.438;-0.010;2022-12-01T01:40:54;76.13;;;27.15;;
41309;SDS011;27057;51.438;-0.010;2022-12-01T01:43:41;57.60;;;23.95;;
41309;SDS011;27057;51.438;-0.010;2022-12-01T01:46:10;58.25;;;22.92;;
41309;SDS011;27057;51.438;-0.010;2022-12-01T01:48:41;58.95;;;24.10;;
41309;SDS011;27057;51.438;-0.010;2022-12-01T01:51:12;53.20;;;22.33;;
41309;SDS011;27057;51.438;-0.010;2022-12-01T01:53:41;57.30;;;22.52;;
41309;SDS011;27057;51.438;-0.010;2022-12-01T01:56:11;55.38;;;20.55;;
41309;SDS011;27057;51.438;-0.010;2022-12-01T01:58:39;52.47;;;20.48;;
41309;SDS011;27057;51.438;-0.010;2022-12-01T02:01:07;51.53;;;21.13;;
41309;SDS011;27057;51.438;-0.010;2022-12-01T02:03:35;47.40;;;18.92;;
41309;SDS011;27057;51.438;-0.010;2022-12-01T02:06:05;49.75;;;17.90;;
41309;SDS011;27057;51.438;-0.010;2022-12-01T02:08:35;44.03;;;18.85;;
41309;SDS011;27057;51.438;-0.010;2022-12-01T02:11:09;42.13;;;18.75;;
41309;SDS011;27057;51.438;-0.010;2022-12-01T02:27:18;41.63;;;16.80;;
41309;SDS011;27057;51.438;-0.010;2022-12-01T02:30:09;40.22;;;16.70;;
41309;SDS011;27057;51.438;-0.010;2022-12-01T02:35:26;43.83;;;17.17;;
41309;SDS011;27057;51.438;-0.010;2022-12-01T02:38:22;43.55;;;17.02;;
41309;SDS011;27057;51.438;-0.010;2022-12-01T02:41:07;44.13;;;18.15;;
41309;SDS011;27057;51.438;-0.010;2022-12-01T02:43:42;43.60;;;17.05;;
41309;SDS011;27057;51.438;-0.010;2022-12-01T02:46:19;51.90;;;17.98;;
41309;SDS011;27057;51.438;-0.010;2022-12-01T02:48:58;53.22;;;18.48;;
41309;SDS011;27057;51.438;-0.010;2022-12-01T02:51:31;48.13;;;18.90;;
41309;SDS011;27057;51.438;-0.010;2022-12-01T02:54:01;35.50;;;16.83;;
41309;SDS011;27057;51.438;-0.010;2022-12-01T02:56:30;50.22;;;16.70;;
41309;SDS011;27057;51.438;-0.010;2022-12-01T02:58:57;46.15;;;18.35;;
41309;SDS011;27057;51.438;-0.010;2022-12-01T03:12:46;47.83;;;18.33;;
41309;SDS011;27057;51.438;-0.010;2022-12-01T03:18:26;49.45;;;20.65;;
41309;SDS011;27057;51.438;-0.010;2022-12-01T03:24:22;47.45;;;17.73;;
41309;SDS011;27057;51.438;-0.010;2022-12-01T03:26:54;43.45;;;17.08;;
41309;SDS011;27057;51.438;-0.010;2022-12-01T03:29:25;43.28;;;18.38;;
41309;SDS011;27057;51.438;-0.010;2022-12-01T03:32:02;41.88;;;17.35;;
41309;SDS011;27057;51.438;-0.010;2022-12-01T03:34:43;42.22;;;17.52;;
41309;SDS011;27057;51.438;-0.010;2022-12-01T03:37:32;42.85;;;16.58;;
41309;SDS011;27057;51.438;-0.010;2022-12-01T03:40:22;36.88;;;15.85;;
41309;SDS011;27057;51.438;-0.010;2022-12-01T03:42:56;35.17;;;16.00;;
41309;SDS011;27057;51.438;-0.010;2022-12-01T03:45:33;42.15;;;15.68;;
41309;SDS011;27057;51.438;-0.010;2022-12-01T03:48:21;44.10;;;17.17;;
41309;SDS011;27057;51.438;-0.010;2022-12-01T03:50:53;47.55;;;17.50;;
41309;SDS011;27057;51.438;-0.010;2022-12-01T03:53:32;49.25;;;18.27;;
41309;SDS011;27057;51.438;-0.010;2022-12-01T03:56:08;47.60;;;18.65;;
41309;SDS011;27057;51.438;-0.010;2022-12-01T03:58:38;41.97;;;16.98;;
41309;SDS011;27057;51.438;-0.010;2022-12-01T04:01:09;52.40;;;17.20;;
41309;SDS011;27057;51.438;-0.010;2022-12-01T04:03:38;44.42;;;17.50;;
41309;SDS011;27057;51.438;-0.010;2022-12-01T04:06:05;39.05;;;16.00;;
41309;SDS011;27057;51.438;-0.010;2022-12-01T04:08:32;46.33;;;17.70;;
41309;SDS011;27057;51.438;-0.010;2022-12-01T04:11:02;43.45;;;17.13;;
41309;SDS011;27057;51.438;-0.010;2022-12-01T04:13:58;38.38;;;16.98;;
41309;SDS011;27057;51.438;-0.010;2022-12-01T04:16:25;44.20;;;19.13;;
41309;SDS011;27057;51.438;-0.010;2022-12-01T04:18:53;48.10;;;18.77;;
41309;SDS011;27057;51.438;-0.010;2022-12-01T04:21:20;51.13;;;18.95;;
41309;SDS011;27057;51.438;-0.010;2022-12-01T04:23:47;76.95;;;19.85;;
41309;SDS011;27057;51.438;-0.010;2022-12-01T04:26:28;46.30;;;19.15;;
41309;SDS011;27057;51.438;-0.010;2022-12-01T04:29:01;44.30;;;20.45;;
41309;SDS011;27057;51.438;-0.010;2022-12-01T04:31:30;49.05;;;18.33;;
41309;SDS011;27057;51.438;-0.010;2022-12-01T04:33:58;50.80;;;19.45;;
41309;SDS011;27057;51.438;-0.010;2022-12-01T04:36:26;47.05;;;20.05;;
41309;SDS011;27057;51.438;-0.010;2022-12-01T04:38:57;46.85;;;18.10;;
41309;SDS011;27057;51.438;-0.010;2022-12-01T04:41:25;47.13;;;19.05;;
41309;SDS011;27057;51.438;-0.010;2022-12-01T04:43:52;46.13;;;18.90;;
41309;SDS011;27057;51.438;-0.010;2022-12-01T04:46:20;48.58;;;19.48;;
41309;SDS011;27057;51.438;-0.010;2022-12-01T04:48:48;50.78;;;18.85;;
41309;SDS011;27057;51.438;-0.010;2022-12-01T04:51:16;35.10;;;14.70;;
41309;SDS011;27057;51.438;-0.010;2022-12-01T04:53:44;41.97;;;16.00;;
41309;SDS011;27057;51.438;-0.010;2022-12-01T04:56:11;37.95;;;15.13;;
41309;SDS011;27057;51.438;-0.010;2022-12-01T04:58:38;43.50;;;15.10;;
41309;SDS011;27057;51.438;-0.010;2022-12-01T05:01:06;46.10;;;14.85;;
41309;SDS011;27057;51.438;-0.010;2022-12-01T05:03:36;40.63;;;15.40;;
41309;SDS011;27057;51.438;-0.010;2022-12-01T05:06:09;40.03;;;14.98;;
41309;SDS011;27057;51.438;-0.010;2022-12-01T05:08:41;45.33;;;15.13;;
41309;SDS011;27057;51.438;-0.010;2022-12-01T05:11:10;38.33;;;14.40;;
41309;SDS011;27057;51.438;-0.010;2022-12-01T05:13:39;36.78;;;13.40;;
41309;SDS011;27057;51.438;-0.010;2022-12-01T05:18:38;42.83;;;15.15;;
41309;SDS011;27057;51.438;-0.010;2022-12-01T05:21:06;43.20;;;17.05;;
41309;SDS011;27057;51.438;-0.010;2022-12-01T05:23:36;46.13;;;15.25;;
41309;SDS011;27057;51.438;-0.010;2022-12-01T05:26:05;34.25;;;14.80;;
41309;SDS011;27057;51.438;-0.010;2022-12-01T05:28:34;41.88;;;16.48;;
41309;SDS011;27057;51.438;-0.010;2022-12-01T05:31:04;33.80;;;15.45;;
41309;SDS011;27057;51.438;-0.010;2022-12-01T05:33:31;36.47;;;16.02;;
41309;SDS011;27057;51.438;-0.010;2022-12-01T05:35:59;37.60;;;15.65;;
41309;SDS011;27057;51.438;-0.010;2022-12-01T05:38:26;38.65;;;16.65;;
41309;SDS011;27057;51.438;-0.010;2022-12-01T05:40:54;36.00;;;15.68;;
41309;SDS011;27057;51.438;-0.010;2022-12-01T05:43:22;42.45;;;16.33;;
41309;SDS011;27057;51.438;-0.010;2022-12-01T05:45:55;40.35;;;16.25;;
41309;SDS011;27057;51.438;-0.010;2022-12-01T05:48:23;48.60;;;15.52;;
41309;SDS011;27057;51.438;-0.010;2022-12-01T05:50:51;34.80;;;14.70;;
41309;SDS011;27057;51.438;-0.010;2022-12-01T05:53:18;38.10;;;15.68;;
41309;SDS011;27057;51.438;-0.010;2022-12-01T05:55:45;37.40;;;15.25;;
41309;SDS011;27057;51.438;-0.010;2022-12-01T05:58:20;40.58;;;15.73;;
41309;SDS011;27057;51.438;-0.010;2022-12-01T06:00:48;35.03;;;15.02;;
41309;SDS011;27057;51.438;-0.010;2022-12-01T06:03:15;43.70;;;16.20;;
41309;SDS011;27057;51.438;-0.010;2022-12-01T06:05:42;37.03;;;15.95;;
41309;SDS011;27057;51.438;-0.010;2022-12-01T06:08:10;37.17;;;15.55;;
41309;SDS011;27057;51.438;-0.010;2022-12-01T06:10:37;39.33;;;16.65;;
41309;SDS011;27057;51.438;-0.010;2022-12-01T06:13:04;38.28;;;15.77;;
41309;SDS011;27057;51.438;-0.010;2022-12-01T06:15:32;39.05;;;14.18;;
41309;SDS011;27057;51.438;-0.010;2022-12-01T06:17:59;40.65;;;16.50;;
41309;SDS011;27057;51.438;-0.010;2022-12-01T06:20:26;46.15;;;16.05;;
41309;SDS011;27057;51.438;-0.010;2022-12-01T06:22:54;34.05;;;15.13;;
41309;SDS011;27057;51.438;-0.010;2022-12-01T06:25:21;37.13;;;15.95;;
41309;SDS011;27057;51.438;-0.010;2022-12-01T06:27:48;46.15;;;16.85;;
41309;SDS011;27057;51.438;-0.010;2022-12-01T06:30:16;41.90;;;16.25;;
41309;SDS011;27057;51.438;-0.010;2022-12-01T06:32:43;49.42;;;18.23;;
41309;SDS011;27057;51.438;-0.010;2022-12-01T06:35:10;39.35;;;16.80;;
41309;SDS011;27057;51.438;-0.010;2022-12-01T06:37:38;39.20;;;16.40;;
41309;SDS011;27057;51.438;-0.010;2022-12-01T06:40:05;41.25;;;17.45;;
41309;SDS011;27057;51.438;-0.010;2022-12-01T06:42:33;48.38;;;17.35;;
41309;SDS011;27057;51.438;-0.010;2022-12-01T06:45:00;37.55;;;14.80;;
41309;SDS011;27057;51.438;-0.010;2022-12-01T06:47:28;40.05;;;16.67;;
41309;SDS011;27057;51.438;-0.010;2022-12-01T06:49:55;42.17;;;16.70;;
41309;SDS011;27057;51.438;-0.010;2022-12-01T06:52:23;39.85;;;16.67;;
41309;SDS011;27057;51.438;-0.010;2022-12-01T06:54:50;34.95;;;15.75;;
41309;SDS011;27057;51.438;-0.010;2022-12-01T06:57:18;40.15;;;15.50;;
41309;SDS011;27057;51.438;-0.010;2022-12-01T06:59:46;36.28;;;16.52;;
41309;SDS011;27057;51.438;-0.010;2022-12-01T07:02:14;36.00;;;15.13;;
41309;SDS011;27057;51.438;-0.010;2022-12-01T07:04:42;44.05;;;15.88;;
41309;SDS011;27057;51.438;-0.010;2022-12-01T07:07:10;48.20;;;16.45;;
41309;SDS011;27057;51.438;-0.010;2022-12-01T07:09:38;38.30;;;16.05;;
41309;SDS011;27057;51.438;-0.010;2022-12-01T07:12:05;38.05;;;15.98;;
41309;SDS011;27057;51.438;-0.010;2022-12-01T07:14:33;44.00;;;16.00;;
41309;SDS011;27057;51.438;-0.010;2022-12-01T07:17:00;35.85;;;16.20;;
41309;SDS011;27057;51.438;-0.010;2022-12-01T07:19:28;41.78;;;16.48;;
41309;SDS011;27057;51.438;-0.010;2022-12-01T07:21:55;55.28;;;16.90;;
41309;SDS011;27057;51.438;-0.010;2022-12-01T07:24:22;42.58;;;15.13;;
41309;SDS011;27057;51.438;-0.010;2022-12-01T07:26:50;43.67;;;15.50;;
41309;SDS011;27057;51.438;-0.010;2022-12-01T07:29:17;36.05;;;14.85;;
41309;SDS011;27057;51.438;-0.010;2022-12-01T07:31:44;36.70;;;15.40;;
41309;SDS011;27057;51.438;-0.010;2022-12-01T07:34:12;44.55;;;16.67;;
41309;SDS011;27057;51.438;-0.010;2022-12-01T07:36:39;37.22;;;16.70;;
41309;SDS011;27057;51.438;-0.010;2022-12-01T07:39:07;44.92;;;15.13;;
41309;SDS011;27057;51.438;-0.010;2022-12-01T07:41:34;36.70;;;16.05;;
41309;SDS011;27057;51.438;-0.010;2022-12-01T07:44:02;40.90;;;16.05;;
41309;SDS011;27057;51.438;-0.010;2022-12-01T07:46:29;33.25;;;15.43;;
41309;SDS011;27057;51.438;-0.010;2022-12-01T07:48:57;58.08;;;16.65;;
41309;SDS011;27057;51.438;-0.010;2022-12-01T07:51:25;39.05;;;15.40;;
41309;SDS011;27057;51.438;-0.010;2022-12-01T07:53:53;39.10;;;17.98;;
41309;SDS011;27057;51.438;-0.010;2022-12-01T07:56:21;42.45;;;15.45;;
41309;SDS011;27057;51.438;-0.010;2022-12-01T07:58:49;39.40;;;15.95;;
41309;SDS011;27057;51.438;-0.010;2022-12-01T08:01:18;39.05;;;15.80;;
41309;SDS011;27057;51.438;-0.010;2022-12-01T08:03:50;32.78;;;14.50;;
41309;SDS011;27057;51.438;-0.010;2022-12-01T08:06:19;36.78;;;16.02;;
41309;SDS011;27057;51.438;-0.010;2022-12-01T08:08:47;38.83;;;16.85;;
41309;SDS011;27057;51.438;-0.010;2022-12-01T08:13:46;34.05;;;16.02;;
41309;SDS011;27057;51.438;-0.010;2022-12-01T08:16:15;39.08;;;15.85;;
41309;SDS011;27057;51.438;-0.010;2022-12-01T08:18:44;31.17;;;15.95;;
41309;SDS011;27057;51.438;-0.010;2022-12-01T08:21:12;35.25;;;14.88;;
41309;SDS011;27057;51.438;-0.010;2022-12-01T08:23:41;36.35;;;15.35;;
41309;SDS011;27057;51.438;-0.010;2022-12-01T08:26:11;33.58;;;15.98;;
41309;SDS011;27057;51.438;-0.010;2022-12-01T08:28:40;36.08;;;15.05;;
41309;SDS011;27057;51.438;-0.010;2022-12-01T08:31:15;36.80;;;16.27;;
41309;SDS011;27057;51.438;-0.010;2022-12-01T08:33:48;35.38;;;14.98;;
41309;SDS011;27057;51.438;-0.010;2022-12-01T08:36:16;36.25;;;15.80;;
41309;SDS011;27057;51.438;-0.010;2022-12-01T08:38:44;39.15;;;17.40;;
41309;SDS011;27057;51.438;-0.010;2022-12-01T08:41:12;39.65;;;16.75;;
41309;SDS011;27057;51.438;-0.010;2022-12-01T08:43:40;41.17;;;14.75;;
41309;SDS011;27057;51.438;-0.010;2022-12-01T08:46:27;38.65;;;16.65;;
41309;SDS011;27057;51.438;-0.010;2022-12-01T08:48:59;40.22;;;16.00;;
41309;SDS011;27057;51.438;-0.010;2022-12-01T08:51:28;37.97;;;16.27;;
41309;SDS011;27057;51.438;-0.010;2022-12-01T08:53:57;40.97;;;17.60;;
41309;SDS011;27057;51.438;-0.010;2022-12-01T08:56:32;43.95;;;16.75;;
41309;SDS011;27057;51.438;-0.010;2022-12-01T08:59:02;40.30;;;18.03;;
41309;SDS011;27057;51.438;-0.010;2022-12-01T09:01:30;43.97;;;16.65;;
41309;SDS011;27057;51.438;-0.010;2022-12-01T09:03:59;43.85;;;16.08;;
41309;SDS011;27057;51.438;-0.010;2022-12-01T09:06:33;38.85;;;18.08;;
41309;SDS011;27057;51.438;-0.010;2022-12-01T09:09:05;39.33;;;16.75;;
41309;SDS011;27057;51.438;-0.010;2022-12-01T09:11:34;38.88;;;16.67;;
41309;SDS011;27057;51.438;-0.010;2022-12-01T09:14:01;42.55;;;18.75;;
41309;SDS011;27057;51.438;-0.010;2022-12-01T09:16:28;42.33;;;18.13;;
41309;SDS011;27057;51.438;-0.010;2022-12-01T09:18:56;40.72;;;18.35;;
41309;SDS011;27057;51.438;-0.010;2022-12-01T09:21:25;40.22;;;17.40;;
41309;SDS011;27057;51.438;-0.010;2022-12-01T09:23:53;39.55;;;17.80;;
41309;SDS011;27057;51.438;-0.010;2022-12-01T09:26:21;42.13;;;18.33;;
41309;SDS011;27057;51.438;-0.010;2022-12-01T09:28:49;44.17;;;19.23;;
41309;SDS011;27057;51.438;-0.010;2022-12-01T09:31:19;43.22;;;17.45;;
41309;SDS011;27057;51.438;-0.010;2022-12-01T09:33:56;38.03;;;16.88;;
41309;SDS011;27057;51.438;-0.010;2022-12-01T09:36:25;39.05;;;16.83;;
41309;SDS011;27057;51.438;-0.010;2022-12-01T09:38:53;40.83;;;17.85;;
41309;SDS011;27057;51.438;-0.010;2022-12-01T09:41:42;58.05;;;18.25;;
41309;SDS011;27057;51.438;-0.010;2022-12-01T09:52:37;38.88;;;16.80;;
41309;SDS011;27057;51.438;-0.010;2022-12-01T09:55:13;38.20;;;17.60;;
41309;SDS011;27057;51.438;-0.010;2022-12-01T09:57:43;35.67;;;16.05;;
41309;SDS011;27057;51.438;-0.010;2022-12-01T10:00:16;41.75;;;16.85;;
41309;SDS011;27057;51.438;-0.010;2022-12-01T10:05:43;48.10;;;17.92;;
41309;SDS011;27057;51.438;-0.010;2022-12-01T10:08:33;43.00;;;17.35;;
41309;SDS011;27057;51.438;-0.010;2022-12-01T10:11:26;34.20;;;15.40;;
41309;SDS011;27057;51.438;-0.010;2022-12-01T10:14:00;34.30;;;16.13;;
41309;SDS011;27057;51.438;-0.010;2022-12-01T10:16:31;40.50;;;17.80;;
41309;SDS011;27057;51.438;-0.010;2022-12-01T10:22:05;33.05;;;15.30;;
41309;SDS011;27057;51.438;-0.010;2022-12-01T10:27:33;46.50;;;16.98;;
41309;SDS011;27057;51.438;-0.010;2022-12-01T10:30:03;44.67;;;17.35;;
41309;SDS011;27057;51.438;-0.010;2022-12-01T10:32:40;41.53;;;17.90;;
41309;SDS011;27057;51.438;-0.010;2022-12-01T10:35:20;35.13;;;14.33;;
41309;SDS011;27057;51.438;-0.010;2022-12-01T10:37:55;34.28;;;15.63;;
41309;SDS011;27057;51.438;-0.010;2022-12-01T10:40:24;30.30;;;15.45;;
41309;SDS011;27057;51.438;-0.010;2022-12-01T10:42:53;35.65;;;15.30;;
41309;SDS011;27057;51.438;-0.010;2022-12-01T10:45:25;48.17;;;16.10;;
41309;SDS011;27057;51.438;-0.010;2022-12-01T10:50:44;39.17;;;17.13;;
41309;SDS011;27057;51.438;-0.010;2022-12-01T10:59:21;41.70;;;16.73;;
41309;SDS011;27057;51.438;-0.010;2022-12-01T11:01:30;39.50;;;18.70;;
41309;SDS011;27057;51.438;-0.010;2022-12-01T11:04:06;35.85;;;15.65;;
41309;SDS011;27057;51.438;-0.010;2022-12-01T11:06:47;39.22;;;15.55;;
41309;SDS011;27057;51.438;-0.010;2022-12-01T11:09:54;37.03;;;16.95;;
41309;SDS011;27057;51.438;-0.010;2022-12-01T11:12:13;33.35;;;15.63;;
41309;SDS011;27057;51.438;-0.010;2022-12-01T11:14:44;49.50;;;16.42;;
41309;SDS011;27057;51.438;-0.010;2022-12-01T11:17:16;35.28;;;15.55;;
41309;SDS011;27057;51.438;-0.010;2022-12-01T11:19:50;33.90;;;14.63;;
41309;SDS011;27057;51.438;-0.010;2022-12-01T11:22:26;32.83;;;15.10;;
41309;SDS011;27057;51.438;-0.010;2022-12-01T11:24:58;28.70;;;13.77;;
41309;SDS011;27057;51.438;-0.010;2022-12-01T11:27:44;31.38;;;13.73;;
41309;SDS011;27057;51.438;-0.010;2022-12-01T11:30:24;40.53;;;14.63;;
41309;SDS011;27057;51.438;-0.010;2022-12-01T11:32:53;25.83;;;12.90;;
41309;SDS011;27057;51.438;-0.010;2022-12-01T11:35:24;37.63;;;13.68;;
41309;SDS011;27057;51.438;-0.010;2022-12-01T11:38:03;24.25;;;12.15;;
41309;SDS011;27057;51.438;-0.010;2022-12-01T11:40:53;25.05;;;11.77;;
41309;SDS011;27057;51.438;-0.010;2022-12-01T11:43:23;25.00;;;11.70;;
41309;SDS011;27057;51.438;-0.010;2022-12-01T11:45:56;24.88;;;12.05;;
41309;SDS011;27057;51.438;-0.010;2022-12-01T11:48:28;30.95;;;12.95;;
41309;SDS011;27057;51.438;-0.010;2022-12-01T11:53:45;29.20;;;13.07;;
41309;SDS011;27057;51.438;-0.010;2022-12-01T11:56:17;30.63;;;13.02;;
41309;SDS011;27057;51.438;-0.010;2022-12-01T11:59:01;32.08;;;13.38;;
41309;SDS011;27057;51.438;-0.010;2022-12-01T12:21:18;17.27;;;10.43;;
41309;SDS011;27057;51.438;-0.010;2022-12-01T12:24:11;23.85;;;11.10;;
41309;SDS011;27057;51.438;-0.010;2022-12-01T12:26:59;26.45;;;11.63;;
41309;SDS011;27057;51.438;-0.010;2022-12-01T12:29:42;26.25;;;12.13;;
41309;SDS011;27057;51.438;-0.010;2022-12-01T12:32:43;24.17;;;9.55;;
41309;SDS011;27057;51.438;-0.010;2022-12-01T12:38:35;20.63;;;10.38;;
41309;SDS011;27057;51.438;-0.010;2022-12-01T12:44:03;21.20;;;10.27;;
41309;SDS011;27057;51.438;-0.010;2022-12-01T12:52:12;17.73;;;8.65;;
41309;SDS011;27057;51.438;-0.010;2022-12-01T12:57:40;21.45;;;8.90;;
41309;SDS011;27057;51.438;-0.010;2022-12-01T13:00:16;20.98;;;9.93;;
41309;SDS011;27057;51.438;-0.010;2022-12-01T13:02:48;27.40;;;10.07;;
41309;SDS011;27057;51.438;-0.010;2022-12-01T13:05:22;29.58;;;10.13;;
41309;SDS011;27057;51.438;-0.010;2022-12-01T13:08:07;23.83;;;10.80;;
41309;SDS011;27057;51.438;-0.010;2022-12-01T13:10:41;21.95;;;10.65;;
41309;SDS011;27057;51.438;-0.010;2022-12-01T13:16:05;16.40;;;7.38;;
41309;SDS011;27057;51.438;-0.010;2022-12-01T13:18:43;10.88;;;6.43;;
41309;SDS011;27057;51.438;-0.010;2022-12-01T13:21:16;14.88;;;6.30;;
41309;SDS011;27057;51.438;-0.010;2022-12-01T13:23:46;14.20;;;6.28;;
41309;SDS011;27057;51.438;-0.010;2022-12-01T13:26:16;13.95;;;6.55;;
41309;SDS011;27057;51.438;-0.010;2022-12-01T13:28:46;16.05;;;5.93;;
41309;SDS011;27057;51.438;-0.010;2022-12-01T13:31:21;17.42;;;6.40;;
41309;SDS011;27057;51.438;-0.010;2022-12-01T13:36:27;17.15;;;6.63;;
41309;SDS011;27057;51.438;-0.010;2022-12-01T13:41:48;14.15;;;6.63;;
41309;SDS011;27057;51.438;-0.010;2022-12-01T13:44:24;17.08;;;7.28;;
41309;SDS011;27057;51.438;-0.010;2022-12-01T13:47:03;17.48;;;6.53;;
41309;SDS011;27057;51.438;-0.010;2022-12-01T13:49:51;16.05;;;6.85;;
41309;SDS011;27057;51.438;-0.010;2022-12-01T14:00:24;6.75;;;4.40;;
41309;SDS011;27057;51.438;-0.010;2022-12-01T14:08:18;11.93;;;5.50;;
41309;SDS011;27057;51.438;-0.010;2022-12-01T14:11:05;10.48;;;5.53;;
41309;SDS011;27057;51.438;-0.010;2022-12-01T14:16:53;9.93;;;4.85;;
41309;SDS011;27057;51.438;-0.010;2022-12-01T14:19:34;10.27;;;4.82;;
41309;SDS011;27057;51.438;-0.010;2022-12-01T14:22:29;9.68;;;4.32;;
41309;SDS011;27057;51.438;-0.010;2022-12-01T14:24:59;9.27;;;4.97;;
41309;SDS011;27057;51.438;-0.010;2022-12-01T14:41:30;14.20;;;5.57;;
41309;SDS011;27057;51.438;-0.010;2022-12-01T14:44:05;12.93;;;6.55;;
41309;SDS011;27057;51.438;-0.010;2022-12-01T14:46:41;9.75;;;5.43;;
41309;SDS011;27057;51.438;-0.010;2022-12-01T14:49:13;14.02;;;5.15;;
41309;SDS011;27057;51.438;-0.010;2022-12-01T14:51:49;16.52;;;5.35;;
41309;SDS011;27057;51.438;-0.010;2022-12-01T14:54:23;21.20;;;6.03;;
41309;SDS011;27057;51.438;-0.010;2022-12-01T14:56:54;14.43;;;5.93;;
41309;SDS011;27057;51.438;-0.010;2022-12-01T14:59:31;17.58;;;6.15;;
41309;SDS011;27057;51.438;-0.010;2022-12-01T15:02:02;17.08;;;6.63;;
41309;SDS011;27057;51.438;-0.010;2022-12-01T15:05:03;16.02;;;6.68;;
41309;SDS011;27057;51.438;-0.010;2022-12-01T15:07:37;17.23;;;6.55;;
41309;SDS011;27057;51.438;-0.010;2022-12-01T15:10:20;14.38;;;6.60;;
41309;SDS011;27057;51.438;-0.010;2022-12-01T15:13:13;21.50;;;7.07;;
41309;SDS011;27057;51.438;-0.010;2022-12-01T15:16:00;16.27;;;6.60;;
41309;SDS011;27057;51.438;-0.010;2022-12-01T15:18:33;15.82;;;6.75;;
41309;SDS011;27057;51.438;-0.010;2022-12-01T15:21:04;14.35;;;6.53;;
41309;SDS011;27057;51.438;-0.010;2022-12-01T15:23:57;12.00;;;6.32;;
41309;SDS011;27057;51.438;-0.010;2022-12-01T15:26:30;15.77;;;7.22;;
41309;SDS011;27057;51.438;-0.010;2022-12-01T15:29:16;19.75;;;7.63;;
41309;SDS011;27057;51.438;-0.010;2022-12-01T15:31:47;13.60;;;5.85;;
41309;SDS011;27057;51.438;-0.010;2022-12-01T15:34:27;15.82;;;7.75;;
41309;SDS011;27057;51.438;-0.010;2022-12-01T15:36:56;24.15;;;8.63;;
41309;SDS011;27057;51.438;-0.010;2022-12-01T15:39:28;19.48;;;7.97;;
41309;SDS011;27057;51.438;-0.010;2022-12-01T15:41:58;19.38;;;8.25;;
41309;SDS011;27057;51.438;-0.010;2022-12-01T15:44:27;22.48;;;8.88;;
41309;SDS011;27057;51.438;-0.010;2022-12-01T15:52:58;24.83;;;8.52;;
41309;SDS011;27057;51.438;-0.010;2022-12-01T15:55:33;16.02;;;8.77;;
41309;SDS011;27057;51.438;-0.010;2022-12-01T15:58:06;18.63;;;9.73;;
41309;SDS011;27057;51.438;-0.010;2022-12-01T16:00:34;23.30;;;8.68;;
41309;SDS011;27057;51.438;-0.010;2022-12-01T16:03:02;27.77;;;8.65;;
41309;SDS011;27057;51.438;-0.010;2022-12-01T16:05:33;19.80;;;9.70;;
41309;SDS011;27057;51.438;-0.010;2022-12-01T16:08:14;27.60;;;9.32;;
41309;SDS011;27057;51.438;-0.010;2022-12-01T16:10:44;24.80;;;10.23;;
41309;SDS011;27057;51.438;-0.010;2022-12-01T16:16:18;30.92;;;11.90;;
41309;SDS011;27057;51.438;-0.010;2022-12-01T16:21:24;28.92;;;11.63;;
41309;SDS011;27057;51.438;-0.010;2022-12-01T16:24:02;23.35;;;10.80;;
41309;SDS011;27057;51.438;-0.010;2022-12-01T16:26:31;24.52;;;12.38;;
41309;SDS011;27057;51.438;-0.010;2022-12-01T16:28:59;30.23;;;13.20;;
41309;SDS011;27057;51.438;-0.010;2022-12-01T16:31:27;31.08;;;15.48;;
41309;SDS011;27057;51.438;-0.010;2022-12-01T16:34:00;36.83;;;16.08;;
41309;SDS011;27057;51.438;-0.010;2022-12-01T16:36:49;51.63;;;18.20;;
41309;SDS011;27057;51.438;-0.010;2022-12-01T16:39:16;43.88;;;18.08;;
41309;SDS011;27057;51.438;-0.010;2022-12-01T16:41:43;49.40;;;20.17;;
41309;SDS011;27057;51.438;-0.010;2022-12-01T16:44:13;44.17;;;19.60;;
41309;SDS011;27057;51.438;-0.010;2022-12-01T16:46:56;44.08;;;19.48;;
41309;SDS011;27057;51.438;-0.010;2022-12-01T16:49:23;44.25;;;20.65;;
41309;SDS011;27057;51.438;-0.010;2022-12-01T16:51:51;50.13;;;21.92;;
41309;SDS011;27057;51.438;-0.010;2022-12-01T16:54:23;40.95;;;20.27;;
41309;SDS011;27057;51.438;-0.010;2022-12-01T16:56:51;52.97;;;21.80;;
41309;SDS011;27057;51.438;-0.010;2022-12-01T16:59:18;51.95;;;20.95;;
41309;SDS011;27057;51.438;-0.010;2022-12-01T17:01:45;53.85;;;21.50;;
41309;SDS011;27057;51.438;-0.010;2022-12-01T17:04:13;61.70;;;24.75;;
41309;SDS011;27057;51.438;-0.010;2022-12-01T17:06:40;46.28;;;20.67;;
41309;SDS011;27057;51.438;-0.010;2022-12-01T17:09:08;56.33;;;22.23;;
41309;SDS011;27057;51.438;-0.010;2022-12-01T17:11:35;47.28;;;21.20;;